createdAt,value
2022-12-01T00:00:54.682Z,2.69
2022-12-01T00:01:55.367Z,2.58
2022-12-01T00:02:55.233Z,2.62
2022-12-01T00:03:54.878Z,2.59
2022-12-01T00:04:54.602Z,2.72
2022-12-01T00:05:54.833Z,2.62
2022-12-01T00:06:54.569Z,2.63
2022-12-01T00:07:55.051Z,2.59
2022-12-01T00:08:54.276Z,2.58
2022-12-01T00:09:55.123Z,2.52
2022-12-01T00:10:54.523Z,2.51
2022-12-01T00:11:54.501Z,2.44
2022-12-01T00:12:54.479Z,2.36
2022-12-01T00:13:54.480Z,2.41
2022-12-01T00:14:54.678Z,2.36
2022-12-01T00:15:54.399Z,2.29
2022-12-01T00:16:54.606Z,2.38
2022-12-01T00:17:54.357Z,2.36
2022-12-01T00:18:54.344Z,2.31
2022-12-01T00:19:54.751Z,2.26
2022-12-01T00:20:54.562Z,2.16
2022-12-01T00:21:54.293Z,2.18
2022-12-01T00:22:54.276Z,2.13
2022-12-01T00:23:54.513Z,2.18
2022-12-01T00:24:54.233Z,2.16
2022-12-01T00:25:54.468Z,2.09
2022-12-01T00:26:54.229Z,2.11
2022-12-01T00:27:54.213Z,2.06
2022-12-01T00:28:54.197Z,2.05
2022-12-01T00:29:54.436Z,1.98
2022-12-01T00:30:54.376Z,2.04
2022-12-01T00:31:54.595Z,1.97
2022-12-01T00:32:54.095Z,2.02
2022-12-01T00:33:54.343Z,1.84
2022-12-01T00:34:54.324Z,1.93
2022-12-01T00:35:54.032Z,1.83
2022-12-01T00:36:54.267Z,1.86
2022-12-01T00:37:54.000Z,1.86
2022-12-01T00:38:54.231Z,1.74
2022-12-01T00:39:54.651Z,1.74
2022-12-01T00:40:53.946Z,1.69
2022-12-01T00:41:54.176Z,1.71
2022-12-01T00:42:53.931Z,1.74
2022-12-01T00:43:53.912Z,1.69
2022-12-01T00:44:53.892Z,1.74
2022-12-01T00:45:54.029Z,1.75
2022-12-01T00:46:54.091Z,1.76
2022-12-01T00:47:54.309Z,1.74
2022-12-01T00:48:54.324Z,1.79
2022-12-01T00:49:54.517Z,1.78
2022-12-01T00:50:53.996Z,1.75
2022-12-01T00:51:54.235Z,1.75
2022-12-01T00:52:54.220Z,1.56
2022-12-01T00:53:53.692Z,1.65
2022-12-01T00:54:54.181Z,1.6
2022-12-01T00:55:53.921Z,1.56
2022-12-01T00:56:53.890Z,1.56
2022-12-01T00:57:53.887Z,1.47
2022-12-01T00:58:53.876Z,1.51
2022-12-01T00:59:54.330Z,1.47
2022-12-01T01:00:54.339Z,1.42
2022-12-01T01:01:54.439Z,1.38
2022-12-01T01:02:54.355Z,1.38
2022-12-01T01:03:53.759Z,1.3
2022-12-01T01:04:53.734Z,1.18
2022-12-01T01:05:53.463Z,1.1
2022-12-01T01:06:53.443Z,1.08
2022-12-01T01:07:53.928Z,1.07
2022-12-01T01:08:53.656Z,0.94
2022-12-01T01:09:54.222Z,1
2022-12-01T01:10:53.885Z,0.9
2022-12-01T01:11:53.603Z,0.92
2022-12-01T01:12:53.336Z,0.84
2022-12-01T01:13:53.581Z,0.82
2022-12-01T01:14:53.576Z,0.86
2022-12-01T01:15:53.806Z,0.78
2022-12-01T01:16:54.112Z,0.72
2022-12-01T01:17:53.232Z,0.61
2022-12-01T01:18:53.219Z,0.64
2022-12-01T01:19:53.965Z,0.6
2022-12-01T01:20:53.682Z,0.52
2022-12-01T01:21:53.162Z,0.45
2022-12-01T01:22:53.652Z,0.41
2022-12-01T01:23:53.371Z,0.39
2022-12-01T01:24:53.354Z,0.35
2022-12-01T01:25:53.590Z,0.41
2022-12-01T01:26:53.317Z,0.39
2022-12-01T01:27:53.294Z,0.35
2022-12-01T01:28:53.274Z,0.32
2022-12-01T01:29:53.605Z,0.27
2022-12-01T01:30:53.250Z,0.16
2022-12-01T01:31:53.493Z,0.17
2022-12-01T01:32:53.484Z,0.1
2022-12-01T01:33:53.184Z,0.1
2022-12-01T01:34:53.163Z,0.09
2022-12-01T01:35:53.399Z,0.1
2022-12-01T01:36:53.126Z,0.14
2022-12-01T01:37:53.458Z,0.1
2022-12-01T01:38:52.828Z,0.06
2022-12-01T01:39:53.992Z,0.06
2022-12-01T01:40:53.062Z,0.02
2022-12-01T01:41:53.022Z,0.02
2022-12-01T01:42:53.261Z,-0.02
2022-12-01T01:43:53.237Z,-0.01
2022-12-01T01:45:53.347Z,0.02
2022-12-01T01:46:52.700Z,-0.09
2022-12-01T01:47:52.944Z,-0.12
2022-12-01T01:48:52.914Z,-0.04
2022-12-01T01:49:53.381Z,-0.18
2022-12-01T01:50:53.103Z,-0.15
2022-12-01T01:51:52.822Z,-0.13
2022-12-01T01:52:52.812Z,-0.16
2022-12-01T01:53:52.786Z,-0.22
2022-12-01T01:54:53.023Z,-0.19
2022-12-01T01:55:53.009Z,-0.18
2022-12-01T01:56:52.995Z,-0.3
2022-12-01T01:57:52.965Z,-0.33
2022-12-01T01:58:52.951Z,-0.3
2022-12-01T01:59:53.856Z,-0.34
2022-12-01T02:00:53.029Z,-0.34
2022-12-01T02:01:52.989Z,-0.36
2022-12-01T02:02:52.967Z,-0.33
2022-12-01T02:03:52.881Z,-0.36
2022-12-01T02:04:52.857Z,-0.36
2022-12-01T02:05:52.295Z,-0.41
2022-12-01T02:06:52.805Z,-0.37
2022-12-01T02:07:52.549Z,-0.38
2022-12-01T02:08:52.490Z,-0.46
2022-12-01T02:09:53.278Z,-0.34
2022-12-01T02:10:52.196Z,-0.36
2022-12-01T02:11:52.803Z,-0.43
2022-12-01T02:12:52.669Z,-0.36
2022-12-01T02:13:52.653Z,-0.3
2022-12-01T02:14:52.714Z,-0.4
2022-12-01T02:15:53.425Z,-0.3
2022-12-01T02:16:53.346Z,-0.41
2022-12-01T02:17:53.387Z,-0.4
2022-12-01T02:18:52.880Z,-0.37
2022-12-01T02:19:54.037Z,-0.38
2022-12-01T02:20:53.098Z,-0.34
2022-12-01T02:21:53.325Z,-0.27
2022-12-01T02:22:58.247Z,-0.38
2022-12-01T02:23:53.008Z,-0.38
2022-12-01T02:24:52.988Z,-0.38
2022-12-01T02:25:52.967Z,-0.25
2022-12-01T02:26:52.958Z,-0.36
2022-12-01T02:27:52.931Z,-0.37
2022-12-01T02:28:53.170Z,-0.31
2022-12-01T02:29:53.871Z,-0.27
2022-12-01T02:30:53.084Z,-0.27
2022-12-01T02:31:52.848Z,-0.31
2022-12-01T02:32:52.830Z,-0.28
2022-12-01T02:33:52.809Z,-0.36
2022-12-01T02:34:53.071Z,-0.28
2022-12-01T02:35:53.062Z,-0.31
2022-12-01T02:36:52.774Z,-0.23
2022-12-01T02:37:52.731Z,-0.27
2022-12-01T02:38:52.453Z,-0.33
2022-12-01T02:39:53.277Z,-0.25
2022-12-01T02:40:52.933Z,-0.27
2022-12-01T02:41:52.394Z,-0.28
2022-12-01T02:42:52.902Z,-0.33
2022-12-01T02:43:52.611Z,-0.31
2022-12-01T02:44:52.849Z,-0.27
2022-12-01T02:45:52.834Z,-0.23
2022-12-01T02:46:52.801Z,-0.19
2022-12-01T02:47:52.784Z,-0.15
2022-12-01T02:48:52.509Z,-0.15
2022-12-01T02:49:53.446Z,-0.15
2022-12-01T02:50:52.499Z,-0.15
2022-12-01T02:51:52.741Z,-0.09
2022-12-01T02:52:52.714Z,-0.18
2022-12-01T02:53:52.674Z,-0.1
2022-12-01T02:54:52.394Z,-0.07
2022-12-01T02:55:52.624Z,-0.1
2022-12-01T02:56:52.352Z,-0.04
2022-12-01T02:57:52.596Z,-0.05
2022-12-01T02:58:52.567Z,0.02
2022-12-01T02:59:53.297Z,0.01
2022-12-01T03:00:52.295Z,0.02
2022-12-01T03:01:52.604Z,0.06
2022-12-01T03:02:52.749Z,0.09
2022-12-01T03:03:52.213Z,0.14
2022-12-01T03:04:52.451Z,0.14
2022-12-01T03:05:52.173Z,0.16
2022-12-01T03:06:52.185Z,0.14
2022-12-01T03:07:52.422Z,0.09
2022-12-01T03:08:52.153Z,0.16
2022-12-01T03:09:53.154Z,0.13
2022-12-01T03:10:52.335Z,0.24
2022-12-01T03:11:52.307Z,0.34
2022-12-01T03:12:52.032Z,0.41
2022-12-01T03:13:51.763Z,0.47
2022-12-01T03:14:52.244Z,0.39
2022-12-01T03:15:53.029Z,0.53
2022-12-01T03:16:53.073Z,0.52
2022-12-01T03:17:52.544Z,0.53
2022-12-01T03:18:52.522Z,0.53
2022-12-01T03:19:53.403Z,0.5
2022-12-01T03:20:52.736Z,0.58
2022-12-01T03:21:52.968Z,0.47
2022-12-01T03:22:52.723Z,0.6
2022-12-01T03:23:52.948Z,0.56
2022-12-01T03:24:52.681Z,0.53
2022-12-01T03:25:52.885Z,0.67
2022-12-01T03:26:52.869Z,0.58
2022-12-01T03:28:25.136Z,0.69
2022-12-01T03:28:52.574Z,0.63
2022-12-01T03:29:53.694Z,0.63
2022-12-01T03:30:53.037Z,0.66
2022-12-01T03:31:52.400Z,0.66
2022-12-01T03:32:52.502Z,0.79
2022-12-01T03:50:26.910Z,0.79
2022-12-01T03:51:26.812Z,0.74
2022-12-01T03:52:26.275Z,0.78
2022-12-01T03:53:26.519Z,0.76
2022-12-01T03:54:26.750Z,0.81
2022-12-01T03:55:26.738Z,0.81
2022-12-01T03:56:26.704Z,0.76
2022-12-01T03:57:26.179Z,0.79
2022-12-01T03:58:26.406Z,0.84
2022-12-01T03:59:26.644Z,0.84
2022-12-01T04:00:26.621Z,0.79
2022-12-01T04:01:26.840Z,0.85
2022-12-01T04:02:26.736Z,0.9
2022-12-01T04:03:26.568Z,0.78
2022-12-01T04:04:26.551Z,0.82
2022-12-01T04:05:30.052Z,0.85
2022-12-01T04:06:26.270Z,0.85
2022-12-01T04:07:26.448Z,0.89
2022-12-01T04:08:26.205Z,0.9
2022-12-01T04:09:26.186Z,0.94
2022-12-01T04:10:26.162Z,0.97
2022-12-01T04:11:32.735Z,0.99
2022-12-01T04:12:26.377Z,1.03
2022-12-01T04:13:25.849Z,0.99
2022-12-01T04:14:25.827Z,1.04
2022-12-01T04:15:26.069Z,1.07
2022-12-01T04:16:26.589Z,1.1
2022-12-01T04:17:26.281Z,1
2022-12-01T04:18:26.268Z,1.08
2022-12-01T04:19:25.988Z,1.1
2022-12-01T04:20:25.967Z,1.11
2022-12-01T04:21:25.997Z,1.08
2022-12-01T04:22:25.958Z,1.04
2022-12-01T04:23:25.907Z,1.15
2022-12-01T04:24:26.139Z,1.11
2022-12-01T04:25:25.868Z,1.07
2022-12-01T04:26:25.592Z,1.2
2022-12-01T04:27:25.835Z,1.15
2022-12-01T04:28:25.812Z,1.18
2022-12-01T04:29:26.052Z,1.15
2022-12-01T04:30:25.774Z,1.24
2022-12-01T04:31:26.039Z,1.18
2022-12-01T04:32:26.001Z,1.28
2022-12-01T04:33:25.966Z,1.18
2022-12-01T04:34:25.686Z,1.17
2022-12-01T04:35:25.419Z,1.2
2022-12-01T04:36:25.657Z,1.2
2022-12-01T04:37:25.936Z,1.2
2022-12-01T04:38:33.038Z,1.15
2022-12-01T04:39:25.856Z,1.12
2022-12-01T04:40:25.329Z,1.18
2022-12-01T04:41:25.565Z,1.17
2022-12-01T04:42:25.791Z,1.15
2022-12-01T04:43:25.271Z,1.18
2022-12-01T04:44:28.930Z,1.21
2022-12-01T04:45:25.221Z,1.18
2022-12-01T04:46:25.669Z,1.24
2022-12-01T04:47:25.695Z,1.29
2022-12-01T04:48:25.451Z,1.28
2022-12-01T04:49:25.655Z,1.28
2022-12-01T04:50:25.388Z,1.24
2022-12-01T04:51:25.621Z,1.21
2022-12-01T04:52:27.436Z,1.22
2022-12-01T04:53:25.641Z,1.24
2022-12-01T04:54:25.584Z,1.29
2022-12-01T04:55:25.026Z,1.2
2022-12-01T04:56:25.519Z,1.26
2022-12-01T04:57:25.243Z,1.33
2022-12-01T04:58:25.484Z,1.17
2022-12-01T04:59:24.962Z,1.36
2022-12-01T05:00:25.231Z,1.32
2022-12-01T05:01:25.441Z,1.28
2022-12-01T05:02:25.170Z,1.35
2022-12-01T05:03:25.403Z,1.33
2022-12-01T05:04:24.853Z,1.39
2022-12-01T05:05:25.097Z,1.33
2022-12-01T05:06:25.334Z,1.35
2022-12-01T05:07:25.476Z,1.46
2022-12-01T05:08:25.295Z,1.4
2022-12-01T05:09:25.332Z,1.42
2022-12-01T05:10:25.027Z,1.36
2022-12-01T05:11:25.231Z,1.42
2022-12-01T05:12:24.954Z,1.39
2022-12-01T05:13:24.938Z,1.38
2022-12-01T05:14:24.923Z,1.35
2022-12-01T05:15:25.158Z,1.36
2022-12-01T05:16:24.821Z,1.28
2022-12-01T05:17:24.862Z,1.33
2022-12-01T05:18:25.018Z,1.22
2022-12-01T05:19:24.567Z,1.3
2022-12-01T05:20:24.802Z,1.17
2022-12-01T05:21:24.784Z,1.21
2022-12-01T05:23:09.774Z,1.32
2022-12-01T05:23:24.750Z,1.35
2022-12-01T05:24:24.985Z,1.26
2022-12-01T05:25:25.061Z,1.38
2022-12-01T05:26:24.713Z,1.3
2022-12-01T05:27:24.413Z,1.33
2022-12-01T05:28:24.661Z,1.29
2022-12-01T05:29:24.640Z,1.4
2022-12-01T05:30:31.057Z,1.35
2022-12-01T05:31:24.753Z,1.39
2022-12-01T05:32:24.847Z,1.32
2022-12-01T05:33:24.563Z,1.28
2022-12-01T05:34:24.537Z,1.35
2022-12-01T05:35:24.520Z,1.35
2022-12-01T05:36:24.755Z,1.42
2022-12-01T05:37:24.744Z,1.38
2022-12-01T05:38:24.207Z,1.36
2022-12-01T05:39:24.445Z,1.39
2022-12-01T05:40:24.421Z,1.39
2022-12-01T05:41:24.880Z,1.35
2022-12-01T05:42:24.411Z,1.36
2022-12-01T05:43:32.074Z,1.29
2022-12-01T05:44:24.348Z,1.32
2022-12-01T05:45:24.071Z,1.33
2022-12-01T05:46:24.823Z,1.29
2022-12-01T05:47:24.030Z,1.35
2022-12-01T05:48:24.272Z,1.36
2022-12-01T05:49:24.512Z,1.32
2022-12-01T05:50:23.971Z,1.3
2022-12-01T05:51:24.223Z,1.18
2022-12-01T05:52:24.197Z,1.33
2022-12-01T05:53:24.176Z,1.28
2022-12-01T05:54:24.419Z,1.3
2022-12-01T05:55:24.130Z,1.26
2022-12-01T05:56:23.863Z,1.22
2022-12-01T05:57:24.407Z,1.22
2022-12-01T05:58:24.102Z,1.28
2022-12-01T05:59:24.060Z,1.2
2022-12-01T06:00:23.781Z,1.26
2022-12-01T06:01:24.280Z,1.22
2022-12-01T06:02:24.111Z,1.26
2022-12-01T06:03:23.727Z,1.2
2022-12-01T06:04:24.493Z,1.28
2022-12-01T06:05:23.949Z,1.29
2022-12-01T06:06:23.923Z,1.21
2022-12-01T06:07:24.376Z,1.24
2022-12-01T06:08:23.884Z,1.22
2022-12-01T06:09:24.126Z,1.22
2022-12-01T06:10:24.100Z,1.32
2022-12-01T06:11:24.093Z,1.26
2022-12-01T06:12:24.067Z,1.36
2022-12-01T06:13:24.121Z,1.32
2022-12-01T06:14:24.059Z,1.21
2022-12-01T06:15:24.011Z,1.15
2022-12-01T06:16:23.927Z,1.21
2022-12-01T06:17:23.467Z,1.33
2022-12-01T06:18:23.961Z,1.21
2022-12-01T06:19:23.943Z,1.36
2022-12-01T06:20:23.653Z,1.3
2022-12-01T06:21:23.385Z,1.32
2022-12-01T06:22:23.617Z,1.38
2022-12-01T06:23:26.364Z,1.33
2022-12-01T06:24:23.838Z,1.32
2022-12-01T06:25:23.568Z,1.29
2022-12-01T06:26:23.800Z,1.33
2022-12-01T06:27:23.526Z,1.39
2022-12-01T06:28:23.249Z,1.42
2022-12-01T06:29:23.794Z,1.38
2022-12-01T06:30:23.760Z,1.38
2022-12-01T06:31:23.860Z,1.42
2022-12-01T06:32:23.689Z,1.39
2022-12-01T06:33:23.665Z,1.39
2022-12-01T06:34:23.645Z,1.46
2022-12-01T06:35:23.373Z,1.38
2022-12-01T06:36:23.353Z,1.36
2022-12-01T06:37:23.333Z,1.36
2022-12-01T06:38:23.583Z,1.33
2022-12-01T06:39:23.561Z,1.32
2022-12-01T06:40:23.539Z,1.35
2022-12-01T06:41:23.265Z,1.35
2022-12-01T06:42:23.497Z,1.36
2022-12-01T06:43:22.965Z,1.42
2022-12-01T06:44:23.454Z,1.3
2022-12-01T06:45:23.242Z,1.35
2022-12-01T06:46:23.528Z,1.36
2022-12-01T06:47:23.141Z,1.33
2022-12-01T06:48:23.168Z,1.26
2022-12-01T06:49:23.104Z,1.32
2022-12-01T06:50:23.342Z,1.22
2022-12-01T06:51:23.067Z,1.32
2022-12-01T06:52:23.047Z,1.35
2022-12-01T06:53:23.290Z,1.33
2022-12-01T06:54:23.016Z,1.29
2022-12-01T06:55:23.491Z,1.3
2022-12-01T06:56:23.226Z,1.33
2022-12-01T06:57:23.791Z,1.32
2022-12-01T06:58:23.322Z,1.35
2022-12-01T06:59:23.564Z,1.15
2022-12-01T07:00:23.726Z,1.24
2022-12-01T07:01:23.499Z,1.32
2022-12-01T07:02:23.089Z,1.24
2022-12-01T07:03:22.837Z,1.3
2022-12-01T07:04:22.565Z,1.3
2022-12-01T07:05:22.799Z,1.15
2022-12-01T07:06:22.801Z,1.29
2022-12-01T07:07:23.823Z,1.3
2022-12-01T07:08:23.986Z,1.29
2022-12-01T07:09:23.481Z,1.32
2022-12-01T07:10:23.697Z,1.32
2022-12-01T07:11:23.932Z,1.32
2022-12-01T07:12:23.400Z,1.33
2022-12-01T07:13:25.014Z,1.33
2022-12-01T07:14:23.875Z,1.4
2022-12-01T07:15:23.597Z,1.33
2022-12-01T07:16:23.578Z,1.36
2022-12-01T07:17:23.624Z,1.4
2022-12-01T07:18:23.817Z,1.42
2022-12-01T07:19:23.787Z,1.42
2022-12-01T07:20:23.502Z,1.38
2022-12-01T07:21:23.480Z,1.36
2022-12-01T07:22:25.912Z,1.35
2022-12-01T07:23:23.466Z,1.38
2022-12-01T07:24:23.682Z,1.36
2022-12-01T07:25:23.406Z,1.4
2022-12-01T07:26:23.645Z,1.4
2022-12-01T07:27:23.370Z,1.44
2022-12-01T07:28:23.348Z,1.35
2022-12-01T07:29:23.334Z,1.46
2022-12-01T07:30:29.385Z,1.47
2022-12-01T07:31:23.780Z,1.54
2022-12-01T07:32:23.270Z,1.48
2022-12-01T07:33:23.561Z,1.5
2022-12-01T07:34:23.512Z,1.51
2022-12-01T07:35:22.962Z,1.47
2022-12-01T07:36:23.192Z,1.4
2022-12-01T07:37:22.934Z,1.38
2022-12-01T07:38:26.484Z,1.39
2022-12-01T07:39:23.139Z,1.35
2022-12-01T07:40:23.120Z,1.42
2022-12-01T07:41:23.370Z,1.35
2022-12-01T07:42:23.084Z,1.24
2022-12-01T07:43:23.062Z,1.36
2022-12-01T07:44:23.301Z,1.35
2022-12-01T07:45:23.044Z,1.36
2022-12-01T07:46:27.499Z,1.36
2022-12-01T07:47:23.247Z,1.36
2022-12-01T07:48:22.714Z,1.44
2022-12-01T07:49:24.276Z,1.42
2022-12-01T07:50:23.965Z,1.38
2022-12-01T07:51:23.916Z,1.5
2022-12-01T07:52:24.154Z,1.57
2022-12-01T07:53:24.137Z,1.46
2022-12-01T07:54:23.869Z,1.53
2022-12-01T07:55:24.101Z,1.39
2022-12-01T07:56:24.087Z,1.46
2022-12-01T07:57:24.061Z,1.47
2022-12-01T07:58:23.790Z,1.48
2022-12-01T07:59:23.769Z,1.48
2022-12-01T08:00:23.482Z,1.5
2022-12-01T08:01:24.498Z,1.51
2022-12-01T08:02:24.586Z,1.54
2022-12-01T08:03:23.650Z,1.51
2022-12-01T08:04:24.139Z,1.61
2022-12-01T08:05:24.199Z,1.48
2022-12-01T08:06:24.121Z,1.54
2022-12-01T08:07:29.783Z,1.58
2022-12-01T08:08:24.156Z,1.46
2022-12-01T08:09:23.785Z,1.57
2022-12-01T08:10:23.766Z,1.4
2022-12-01T08:11:24.006Z,1.4
2022-12-01T08:12:23.736Z,1.42
2022-12-01T08:13:23.723Z,1.51
2022-12-01T08:14:23.696Z,1.53
2022-12-01T08:15:23.889Z,1.48
2022-12-01T08:16:23.656Z,1.48
2022-12-01T08:17:23.379Z,1.44
2022-12-01T08:18:23.613Z,1.56
2022-12-01T08:19:23.601Z,1.56
2022-12-01T08:20:28.806Z,1.46
2022-12-01T08:21:23.300Z,1.42
2022-12-01T08:22:23.987Z,1.47
2022-12-01T08:23:23.773Z,1.39
2022-12-01T08:24:23.521Z,1.53
2022-12-01T08:25:23.730Z,1.54
2022-12-01T08:26:23.225Z,1.61
2022-12-01T08:27:23.188Z,1.5
2022-12-01T08:28:23.678Z,1.51
2022-12-01T08:29:25.374Z,1.46
2022-12-01T08:30:23.381Z,1.47
2022-12-01T08:31:23.926Z,1.58
2022-12-01T08:32:23.599Z,1.53
2022-12-01T08:33:23.578Z,1.51
2022-12-01T08:34:23.307Z,1.5
2022-12-01T08:35:23.541Z,1.46
2022-12-01T08:36:23.580Z,1.42
2022-12-01T08:37:23.505Z,1.39
2022-12-01T08:38:23.521Z,1.54
2022-12-01T08:39:23.207Z,1.53
2022-12-01T08:40:22.936Z,1.54
2022-12-01T08:41:23.435Z,1.53
2022-12-01T08:42:23.152Z,1.6
2022-12-01T08:44:02.534Z,1.6
2022-12-01T08:44:23.036Z,1.65
2022-12-01T08:45:23.093Z,1.65
2022-12-01T08:46:23.381Z,1.69
2022-12-01T08:47:23.906Z,1.72
2022-12-01T08:48:22.804Z,1.69
2022-12-01T08:49:23.035Z,1.84
2022-12-01T08:50:23.027Z,1.86
2022-12-01T08:51:23.599Z,1.86
2022-12-01T08:52:24.000Z,1.94
2022-12-01T08:53:23.821Z,1.94
2022-12-01T08:54:23.576Z,2.05
2022-12-01T08:55:23.522Z,2.05
2022-12-01T08:56:23.244Z,2.01
2022-12-01T08:57:23.487Z,2.09
2022-12-01T08:58:23.469Z,2.13
2022-12-01T08:59:23.701Z,2.18
2022-12-01T09:00:23.701Z,2.23
2022-12-01T09:01:23.684Z,2.2
2022-12-01T09:02:23.914Z,2.24
2022-12-01T09:03:23.655Z,2.23
2022-12-01T09:04:23.608Z,2.22
2022-12-01T09:05:23.583Z,2.23
2022-12-01T09:06:23.307Z,2.31
2022-12-01T09:07:30.859Z,2.34
2022-12-01T09:08:23.336Z,2.31
2022-12-01T09:09:23.554Z,2.33
2022-12-01T09:10:23.604Z,2.42
2022-12-01T09:11:22.958Z,2.33
2022-12-01T09:12:22.937Z,2.38
2022-12-01T09:13:23.433Z,2.36
2022-12-01T09:14:23.413Z,2.36
2022-12-01T09:15:23.396Z,2.4
2022-12-01T09:16:23.601Z,2.29
2022-12-01T09:17:23.102Z,2.22
2022-12-01T09:18:23.451Z,2.18
2022-12-01T09:19:29.421Z,2.18
2022-12-01T09:20:23.422Z,2.18
2022-12-01T09:21:22.851Z,2.31
2022-12-01T09:22:23.276Z,2.36
2022-12-01T09:23:23.057Z,2.31
2022-12-01T09:24:22.969Z,2.3
2022-12-01T09:25:22.972Z,2.29
2022-12-01T09:26:23.222Z,2.33
2022-12-01T09:27:22.917Z,2.18
2022-12-01T09:28:23.156Z,2.23
2022-12-01T09:29:23.133Z,2.13
2022-12-01T09:30:22.900Z,2.16
2022-12-01T09:31:23.632Z,2.04
2022-12-01T09:32:22.821Z,2.06
2022-12-01T09:33:22.802Z,2.05
2022-12-01T09:34:23.042Z,2.09
2022-12-01T09:35:27.783Z,2.08
2022-12-01T09:36:23.005Z,2.02
2022-12-01T09:37:22.980Z,2.08
2022-12-01T09:38:22.711Z,1.98
2022-12-01T09:39:23.051Z,2.12
2022-12-01T09:40:23.010Z,1.94
2022-12-01T09:41:22.911Z,1.89
2022-12-01T09:42:22.916Z,1.93
2022-12-01T09:43:22.875Z,2.01
2022-12-01T09:44:22.849Z,1.94
2022-12-01T09:45:22.317Z,1.83
2022-12-01T09:46:22.814Z,1.76
2022-12-01T09:47:22.801Z,1.76
2022-12-01T09:48:22.520Z,1.71
2022-12-01T09:49:22.755Z,1.75
2022-12-01T09:50:22.346Z,1.71
2022-12-01T09:51:22.457Z,1.56
2022-12-01T09:52:22.454Z,1.61
2022-12-01T09:53:22.683Z,1.6
2022-12-01T09:54:22.406Z,1.57
2022-12-01T09:55:22.698Z,1.58
2022-12-01T09:56:22.117Z,1.54
2022-12-01T09:57:22.357Z,1.61
2022-12-01T09:58:22.750Z,1.58
2022-12-01T09:59:22.312Z,1.61
2022-12-01T10:00:22.471Z,1.61
2022-12-01T10:01:30.029Z,1.61
2022-12-01T10:02:22.439Z,1.69
2022-12-01T10:03:22.232Z,1.75
2022-12-01T10:04:22.219Z,1.82
2022-12-01T10:05:22.191Z,1.68
2022-12-01T10:06:32.659Z,1.72
2022-12-01T10:07:22.551Z,1.83
2022-12-01T10:08:29.544Z,1.74
2022-12-01T10:09:22.135Z,1.84
2022-12-01T10:10:22.501Z,1.89
2022-12-01T10:11:22.388Z,1.79
2022-12-01T10:12:22.336Z,1.84
2022-12-01T10:13:21.789Z,1.84
2022-12-01T10:14:25.225Z,1.92
2022-12-01T10:15:22.006Z,1.93
2022-12-01T10:16:22.425Z,1.92
2022-12-01T10:17:21.962Z,1.87
2022-12-01T10:18:21.950Z,1.9
2022-12-01T10:19:22.215Z,1.87
2022-12-01T10:20:22.166Z,1.84
2022-12-01T10:21:21.890Z,1.9
2022-12-01T10:22:22.143Z,1.94
2022-12-01T10:23:22.111Z,1.97
2022-12-01T10:24:22.093Z,2.02
2022-12-01T10:25:21.813Z,1.97
2022-12-01T10:26:22.053Z,2.02
2022-12-01T10:27:22.084Z,2.02
2022-12-01T10:28:22.011Z,2.02
2022-12-01T10:29:21.996Z,2.06
2022-12-01T10:30:22.170Z,2.12
2022-12-01T10:31:21.911Z,2.06
2022-12-01T10:32:21.933Z,2.12
2022-12-01T10:33:21.918Z,1.92
2022-12-01T10:34:21.902Z,1.83
2022-12-01T10:35:21.885Z,1.92
2022-12-01T10:36:21.866Z,2.01
2022-12-01T10:37:21.781Z,2.01
2022-12-01T10:38:21.573Z,1.94
2022-12-01T10:39:21.805Z,1.93
2022-12-01T10:40:21.526Z,1.78
2022-12-01T10:41:21.519Z,1.9
2022-12-01T10:42:21.489Z,1.92
2022-12-01T10:43:21.531Z,1.86
2022-12-01T10:44:21.449Z,1.84
2022-12-01T10:45:21.693Z,1.75
2022-12-01T10:46:21.963Z,1.78
2022-12-01T10:47:21.663Z,1.69
2022-12-01T10:48:21.383Z,1.71
2022-12-01T10:49:21.625Z,1.72
2022-12-01T10:50:21.588Z,1.71
2022-12-01T10:51:21.423Z,1.78
2022-12-01T10:52:21.563Z,1.75
2022-12-01T10:53:21.536Z,1.75
2022-12-01T10:54:21.281Z,1.72
2022-12-01T10:55:21.503Z,1.86
2022-12-01T10:56:21.284Z,1.97
2022-12-01T10:57:21.218Z,1.84
2022-12-01T10:58:21.438Z,1.83
2022-12-01T10:59:21.223Z,1.87
2022-12-01T11:01:03.859Z,1.83
2022-12-01T11:01:21.866Z,1.94
2022-12-01T11:02:22.440Z,1.92
2022-12-01T11:03:26.578Z,1.97
2022-12-01T11:04:21.069Z,2.01
2022-12-01T11:05:21.054Z,1.98
2022-12-01T11:06:21.291Z,2.06
2022-12-01T11:07:21.322Z,2.06
2022-12-01T11:08:21.252Z,2.08
2022-12-01T11:09:28.845Z,2.08
2022-12-01T11:10:21.418Z,2.09
2022-12-01T11:11:21.196Z,2.08
2022-12-01T11:12:21.182Z,2.06
2022-12-01T11:13:20.899Z,2.02
2022-12-01T11:14:21.140Z,1.97
2022-12-01T11:15:20.939Z,2.02
2022-12-01T11:16:21.283Z,1.98
2022-12-01T11:17:20.827Z,2.02
2022-12-01T11:18:20.834Z,2.02
2022-12-01T11:19:29.557Z,1.89
2022-12-01T11:20:21.253Z,1.86
2022-12-01T11:21:21.005Z,1.92
2022-12-01T11:22:20.730Z,1.82
2022-12-01T11:23:20.719Z,1.72
2022-12-01T11:24:21.219Z,1.69
2022-12-01T11:25:20.946Z,1.68
2022-12-01T11:26:21.192Z,1.56
2022-12-01T11:27:21.149Z,1.65
2022-12-01T11:28:21.145Z,1.58
2022-12-01T11:29:21.153Z,1.64
2022-12-01T11:30:20.848Z,1.56
2022-12-01T11:31:21.911Z,1.5
2022-12-01T11:32:20.809Z,1.57
2022-12-01T11:33:20.792Z,1.51
2022-12-01T11:34:21.057Z,1.56
2022-12-01T11:35:21.025Z,1.56
2022-12-01T11:36:21.250Z,1.6
2022-12-01T11:37:20.711Z,1.6
2022-12-01T11:38:36.132Z,1.56
2022-12-01T11:39:20.418Z,1.6
2022-12-01T11:40:20.978Z,1.69
2022-12-01T11:41:20.893Z,1.6
2022-12-01T11:42:20.876Z,1.72
2022-12-01T11:43:20.854Z,1.74
2022-12-01T11:44:54.844Z,1.68
2022-12-01T11:45:20.316Z,1.74
2022-12-01T11:46:20.858Z,1.79
2022-12-01T12:15:51.624Z,1.69
2022-12-01T12:16:01.766Z,1.72
2022-12-01T12:17:01.702Z,1.74
2022-12-01T12:18:01.765Z,1.78
2022-12-01T12:19:01.655Z,1.69
2022-12-01T12:20:13.941Z,1.75
2022-12-01T12:21:01.630Z,1.72
2022-12-01T12:22:01.377Z,1.83
2022-12-01T12:23:01.585Z,1.78
2022-12-01T12:24:01.818Z,1.71
2022-12-01T12:25:01.798Z,1.66
2022-12-01T12:26:01.523Z,1.58
2022-12-01T12:27:01.525Z,1.57
2022-12-01T12:28:01.485Z,1.57
2022-12-01T12:29:01.487Z,1.6
2022-12-01T12:30:01.444Z,1.56
2022-12-01T12:31:01.952Z,1.53
2022-12-01T12:32:01.699Z,1.44
2022-12-01T12:33:01.382Z,1.48
2022-12-01T12:34:02.089Z,1.53
2022-12-01T12:35:01.820Z,1.51
2022-12-01T12:36:02.045Z,1.5
2022-12-01T12:37:02.033Z,1.54
2022-12-01T12:38:01.754Z,1.53
2022-12-01T12:39:01.999Z,1.53
2022-12-01T12:40:01.973Z,1.58
2022-12-01T12:41:01.951Z,1.56
2022-12-01T12:42:01.435Z,1.57
2022-12-01T12:43:01.655Z,1.54
2022-12-01T12:44:01.663Z,1.58
2022-12-01T12:45:01.876Z,1.6
2022-12-01T12:46:01.592Z,1.56
2022-12-01T12:47:01.642Z,1.56
2022-12-01T12:48:01.908Z,1.61
2022-12-01T12:49:23.757Z,1.53
2022-12-01T12:50:01.527Z,1.56
2022-12-01T12:51:01.813Z,1.61
2022-12-01T12:52:09.199Z,1.61
2022-12-01T12:53:01.761Z,1.57
2022-12-01T12:54:01.695Z,1.57
2022-12-01T12:55:01.474Z,1.64
2022-12-01T12:56:01.466Z,1.57
2022-12-01T12:57:01.690Z,1.65
2022-12-01T12:58:02.047Z,1.65
2022-12-01T12:59:01.392Z,1.68
2022-12-01T13:00:01.619Z,1.78
2022-12-01T13:01:01.354Z,1.76
2022-12-01T13:02:01.453Z,1.76
2022-12-01T13:03:01.547Z,1.69
2022-12-01T13:04:01.326Z,1.76
2022-12-01T13:05:01.012Z,1.71
2022-12-01T13:06:01.278Z,1.76
2022-12-01T13:07:01.224Z,1.71
2022-12-01T13:08:01.695Z,1.69
2022-12-01T13:09:01.448Z,1.84
2022-12-01T13:10:05.479Z,1.86
2022-12-01T13:11:01.419Z,1.84
2022-12-01T13:12:01.398Z,1.86
2022-12-01T13:13:01.111Z,1.79
2022-12-01T13:14:01.365Z,1.83
2022-12-01T13:15:05.631Z,1.78
2022-12-01T13:16:01.515Z,1.76
2022-12-01T13:17:00.788Z,1.69
2022-12-01T13:18:01.017Z,1.71
2022-12-01T13:19:01.386Z,1.75
2022-12-01T13:20:01.305Z,1.72
2022-12-01T13:21:01.259Z,1.76
2022-12-01T13:22:01.485Z,1.84
2022-12-01T13:23:01.209Z,1.83
2022-12-01T13:24:01.158Z,1.84
2022-12-01T13:25:00.892Z,1.87
2022-12-01T13:26:00.865Z,1.87
2022-12-01T13:27:00.851Z,1.87
2022-12-01T13:28:01.089Z,1.83
2022-12-01T13:29:00.582Z,1.87
2022-12-01T13:30:01.054Z,1.83
2022-12-01T13:31:01.309Z,1.82
2022-12-01T13:32:01.003Z,1.71
2022-12-01T13:33:01.943Z,1.74
2022-12-01T13:34:00.453Z,1.72
2022-12-01T13:35:01.064Z,1.82
2022-12-01T13:36:49.371Z,1.74
2022-12-01T13:37:00.922Z,1.84
2022-12-01T13:38:00.899Z,1.78
2022-12-01T13:39:00.622Z,1.83
2022-12-01T13:40:00.597Z,1.86
2022-12-01T13:41:00.914Z,1.82
2022-12-01T13:42:00.560Z,1.82
2022-12-01T13:43:03.152Z,1.72
2022-12-01T13:44:00.532Z,1.86
2022-12-01T13:45:00.506Z,1.87
2022-12-01T13:46:00.759Z,1.79
2022-12-01T13:47:00.710Z,1.9
2022-12-01T13:48:00.726Z,1.92
2022-12-01T13:49:00.432Z,1.87
2022-12-01T13:50:00.663Z,1.87
2022-12-01T13:51:00.710Z,1.9
2022-12-01T13:52:00.656Z,1.89
2022-12-01T13:53:00.344Z,1.83
2022-12-01T13:54:00.331Z,1.74
2022-12-01T13:55:00.307Z,1.74
2022-12-01T13:56:00.661Z,1.71
2022-12-01T13:57:00.273Z,1.82
2022-12-01T13:58:00.252Z,1.69
2022-12-01T13:59:00.245Z,1.75
2022-12-01T14:00:00.477Z,1.74
2022-12-01T14:01:00.817Z,1.72
2022-12-01T14:02:00.377Z,1.69
2022-12-01T14:03:00.988Z,1.6
2022-12-01T14:04:01.733Z,1.58